Time;durP1;ratioP1;P1;durP2;ratioP2;P2;SDS_P1;SDS_P2;PMS_P1;PMS_P2;Temp;Humidity;BMP_temperature;BMP_pressure;BME280_temperature;BME280_humidity;BME280_pressure;Samples;Min_cycle;Max_cycle;Signal;HPM_P1;HPM_P2
2023/10/31 00:02:00;;;;;;;7.90;3.03;;;;;;;12.75;100.00;98610.69;5255583;28;20630;-76
2023/10/31 00:04:30;;;;;;;5.93;3.10;;;;;;;12.62;100.00;98619.59;5256636;28;20024;-76
2023/10/31 00:07:01;;;;;;;6.88;2.92;;;;;;;12.76;100.00;98620.22;5251030;28;20020;-76
2023/10/31 00:09:31;;;;;;;5.95;3.15;;;;;;;12.62;100.00;98625.66;5255416;28;20024;-76
2023/10/31 00:12:01;;;;;;;8.35;3.53;;;;;;;12.72;100.00;98628.44;5237043;28;20019;-77
2023/10/31 00:14:32;;;;;;;7.13;3.35;;;;;;;12.72;100.00;98616.19;5253345;28;20088;-76
2023/10/31 00:17:02;;;;;;;9.80;3.53;;;;;;;12.69;100.00;98628.66;5254941;28;20024;-77
2023/10/31 00:19:32;;;;;;;8.00;3.50;;;;;;;12.67;100.00;98623.53;5252369;28;20027;-77
2023/10/31 00:22:03;;;;;;;8.20;3.53;;;;;;;12.62;100.00;98615.19;5253532;28;20084;-76
2023/10/31 00:24:33;;;;;;;8.75;3.90;;;;;;;12.61;100.00;98623.19;5252971;28;20488;-74
2023/10/31 00:27:04;;;;;;;8.10;3.78;;;;;;;12.69;100.00;98613.78;5249074;28;20448;-77
2023/10/31 00:29:34;;;;;;;7.38;3.75;;;;;;;12.76;100.00;98617.59;5250420;28;20481;-75
2023/10/31 00:32:04;;;;;;;9.38;4.35;;;;;;;12.65;100.00;98622.81;5235454;28;20052;-77
2023/10/31 00:34:35;;;;;;;9.15;4.40;;;;;;;12.68;100.00;98624.38;5255307;28;20053;-76
2023/10/31 00:37:05;;;;;;;9.00;4.43;;;;;;;12.56;100.00;98620.91;5235448;28;20028;-76
2023/10/31 00:39:35;;;;;;;12.55;5.00;;;;;;;12.63;100.00;98616.84;5252267;28;20024;-74
2023/10/31 00:42:06;;;;;;;10.73;5.07;;;;;;;12.65;100.00;98614.13;5254006;28;20059;-78
2023/10/31 00:44:36;;;;;;;12.85;6.30;;;;;;;12.53;100.00;98613.25;5248939;28;20031;-74
2023/10/31 00:47:07;;;;;;;9.80;5.30;;;;;;;12.52;100.00;98614.22;5252697;28;20100;-78
2023/10/31 00:49:37;;;;;;;12.90;5.55;;;;;;;12.48;100.00;98614.56;5249607;28;20369;-78
2023/10/31 00:52:07;;;;;;;12.20;5.63;;;;;;;12.48;100.00;98611.94;5254620;28;20139;-76
2023/10/31 00:54:38;;;;;;;13.10;5.85;;;;;;;12.59;100.00;98620.66;5232208;28;20032;-77
2023/10/31 00:57:08;;;;;;;11.50;6.35;;;;;;;12.50;100.00;98616.09;5251760;28;20509;-77
2023/10/31 00:59:39;;;;;;;14.65;6.18;;;;;;;12.59;100.00;98619.81;5254497;28;20027;-76
2023/10/31 01:02:09;;;;;;;12.98;6.25;;;;;;;12.59;100.00;98618.03;5232442;28;20033;-76
2023/10/31 01:04:39;;;;;;;12.43;6.38;;;;;;;12.66;100.00;98615.78;5252226;28;20401;-77
2023/10/31 01:07:12;;;;;;;12.30;6.05;;;;;;;12.56;100.00;98620.91;5232900;28;20032;-75
2023/10/31 01:09:43;;;;;;;11.50;6.38;;;;;;;12.54;100.00;98617.56;5255159;28;20036;-76
2023/10/31 01:12:13;;;;;;;12.25;6.35;;;;;;;12.53;100.00;98610.66;5254231;28;20031;-75
2023/10/31 01:14:43;;;;;;;12.30;6.57;;;;;;;12.58;100.00;98612.91;5252005;28;20028;-76
2023/10/31 01:17:14;;;;;;;13.32;6.32;;;;;;;12.51;100.00;98602.06;5251332;28;20107;-76
2023/10/31 01:19:44;;;;;;;15.57;7.22;;;;;;;12.54;100.00;98600.97;5251899;28;20256;-76
2023/10/31 01:22:14;;;;;;;14.48;6.97;;;;;;;12.48;100.00;98591.78;5251892;28;20035;-76
2023/10/31 01:24:45;;;;;;;17.45;6.82;;;;;;;12.52;100.00;98585.41;5246977;28;20047;-77
2023/10/31 01:27:15;;;;;;;12.25;6.50;;;;;;;12.52;100.00;98589.78;5248903;28;20111;-77
2023/10/31 01:29:45;;;;;;;11.63;6.75;;;;;;;12.54;100.00;98590.50;5245580;28;20030;-77
2023/10/31 01:32:15;;;;;;;12.02;6.38;;;;;;;12.54;100.00;98585.25;5225459;28;20025;-77
2023/10/31 01:34:46;;;;;;;16.55;7.20;;;;;;;12.53;100.00;98586.22;5252956;28;20967;-76
2023/10/31 01:37:19;;;;;;;13.57;6.60;;;;;;;12.55;100.00;98582.53;5249037;28;20517;-73
2023/10/31 01:39:49;;;;;;;14.55;7.03;;;;;;;12.52;100.00;98579.31;5243028;28;20485;-74
2023/10/31 01:42:19;;;;;;;11.40;6.25;;;;;;;12.53;100.00;98576.59;5240496;28;20032;-76
2023/10/31 01:44:50;;;;;;;12.00;6.43;;;;;;;12.50;100.00;98583.84;5253066;28;20056;-76
2023/10/31 01:47:21;;;;;;;12.23;6.30;;;;;;;12.54;100.00;98582.66;5235119;28;20046;-77
2023/10/31 01:49:52;;;;;;;14.90;6.05;;;;;;;12.59;100.00;98573.50;5230650;28;20446;-78
2023/10/31 01:52:22;;;;;;;12.57;5.65;;;;;;;12.59;100.00;98568.25;5235869;28;20115;-78
2023/10/31 01:54:54;;;;;;;12.00;5.80;;;;;;;12.60;100.00;98561.25;5252693;28;20127;-77
2023/10/31 01:57:24;;;;;;;12.02;6.00;;;;;;;12.63;100.00;98559.19;5251061;28;20366;-73
2023/10/31 01:59:54;;;;;;;11.43;5.90;;;;;;;12.71;100.00;98556.84;5245278;28;20019;-77
2023/10/31 02:02:26;;;;;;;9.45;5.80;;;;;;;12.61;100.00;98555.88;5251068;28;20032;-72
2023/10/31 02:04:56;;;;;;;10.88;5.38;;;;;;;12.65;100.00;98549.44;5236568;28;20072;-77
2023/10/31 02:07:27;;;;;;;12.55;5.70;;;;;;;12.66;100.00;98542.41;5249924;28;20020;-76
2023/10/31 02:09:57;;;;;;;11.45;5.70;;;;;;;12.61;100.00;98527.03;5255417;28;20024;-77
2023/10/31 02:12:34;;;;;;;7.80;5.15;;;;;;;12.59;100.00;98528.94;5252705;28;20048;-76
2023/10/31 02:15:06;;;;;;;15.02;5.70;;;;;;;12.61;100.00;98528.84;5234719;28;20031;-74
2023/10/31 02:17:36;;;;;;;10.98;5.75;;;;;;;12.59;100.00;98528.94;5247216;28;20024;-77
2023/10/31 02:20:07;;;;;;;11.27;6.05;;;;;;;12.57;100.00;98523.00;5254884;28;20020;-75
2023/10/31 02:22:37;;;;;;;11.18;5.38;;;;;;;12.55;100.00;98529.28;5250344;28;20032;-77
2023/10/31 02:25:17;;;;;;;11.60;5.88;;;;;;;12.45;100.00;98534.41;5252578;28;20392;-76
2023/10/31 02:27:48;;;;;;;9.35;5.22;;;;;;;12.54;100.00;98531.09;5252767;28;20437;-74
2023/10/31 02:30:18;;;;;;;11.52;6.13;;;;;;;12.52;100.00;98527.75;5254006;28;20107;-76
2023/10/31 02:32:49;;;;;;;11.50;5.18;;;;;;;12.56;100.00;98517.84;5251290;28;20028;-77
2023/10/31 02:35:19;;;;;;;9.38;5.72;;;;;;;12.53;100.00;98516.31;5236127;28;20020;-76
2023/10/31 02:37:50;;;;;;;10.80;5.45;;;;;;;12.54;100.00;98511.91;5235088;28;20020;-77
2023/10/31 02:40:20;;;;;;;11.15;5.82;;;;;;;12.53;100.00;98505.84;5240942;28;20073;-77
2023/10/31 02:42:50;;;;;;;11.35;5.53;;;;;;;12.53;100.00;98508.47;5255098;28;20029;-74
2023/10/31 02:45:21;;;;;;;10.60;6.50;;;;;;;12.55;100.00;98503.94;5253737;28;20024;-77
2023/10/31 02:47:51;;;;;;;9.13;5.88;;;;;;;12.52;100.00;98508.56;5246047;28;20479;-76
2023/10/31 02:50:21;;;;;;;9.60;5.45;;;;;;;12.60;100.00;98507.03;5252563;28;20039;-76
2023/10/31 02:52:52;;;;;;;10.77;5.70;;;;;;;12.58;100.00;98500.22;5255948;28;20035;-76
2023/10/31 02:55:22;;;;;;;11.43;4.88;;;;;;;12.62;100.00;98494.66;5252956;28;20027;-76
2023/10/31 02:57:52;;;;;;;10.77;4.72;;;;;;;12.60;100.00;98493.94;5250180;28;20126;-76
2023/10/31 03:00:23;;;;;;;10.38;5.93;;;;;;;12.56;100.00;98492.50;5249071;28;20024;-77
2023/10/31 03:02:53;;;;;;;8.13;4.60;;;;;;;12.57;100.00;98491.56;5251488;28;20039;-76
2023/10/31 03:05:23;;;;;;;9.25;5.20;;;;;;;12.60;100.00;98488.69;5235065;28;20054;-77
2023/10/31 03:07:54;;;;;;;7.53;4.63;;;;;;;12.60;100.00;98491.31;5236365;28;20055;-77
2023/10/31 03:10:24;;;;;;;7.70;4.60;;;;;;;12.68;100.00;98496.81;5237075;28;20019;-73
2023/10/31 03:12:54;;;;;;;12.32;4.93;;;;;;;12.64;100.00;98497.97;5251665;28;20490;-77
2023/10/31 03:15:24;;;;;;;8.23;4.60;;;;;;;12.63;100.00;98501.56;5254671;28;20483;-74
2023/10/31 03:17:55;;;;;;;7.38;4.18;;;;;;;12.64;100.00;98494.53;5253612;28;20024;-77
2023/10/31 03:20:25;;;;;;;8.02;4.13;;;;;;;12.66;100.00;98488.19;5253469;28;20138;-76
2023/10/31 03:22:55;;;;;;;5.97;4.20;;;;;;;12.65;100.00;98494.41;5250003;28;20035;-76
2023/10/31 03:25:26;;;;;;;6.28;3.97;;;;;;;12.69;100.00;98484.53;5249058;28;20106;-77
2023/10/31 03:27:56;;;;;;;8.50;3.92;;;;;;;12.71;100.00;98483.47;5250968;28;20259;-76
2023/10/31 03:30:26;;;;;;;6.28;3.55;;;;;;;12.66;100.00;98488.19;5248219;28;20110;-73
2023/10/31 03:32:57;;;;;;;7.07;4.00;;;;;;;12.67;100.00;98489.06;5250619;28;20038;-76
2023/10/31 03:35:27;;;;;;;8.52;3.80;;;;;;;12.68;100.00;98496.81;5253555;28;20325;-76
2023/10/31 03:37:57;;;;;;;6.10;3.78;;;;;;;12.79;100.00;98498.59;5252853;28;20020;-76
2023/10/31 03:40:28;;;;;;;7.28;3.60;;;;;;;12.72;100.00;98495.63;5253319;28;20027;-77
2023/10/31 03:42:58;;;;;;;6.25;3.80;;;;;;;12.72;100.00;98494.78;5249274;28;20190;-75
2023/10/31 03:45:29;;;;;;;6.47;3.80;;;;;;;12.70;100.00;98496.69;5247234;28;20029;-77
2023/10/31 03:47:59;;;;;;;6.80;4.32;;;;;;;12.69;100.00;98493.25;5251315;28;20382;-76
2023/10/31 03:50:29;;;;;;;7.18;3.80;;;;;;;12.66;100.00;98496.06;5252101;28;21098;-77
2023/10/31 03:53:00;;;;;;;8.25;4.32;;;;;;;12.67;100.00;98489.06;5252086;28;20408;-76
2023/10/31 03:55:30;;;;;;;6.55;4.03;;;;;;;12.72;100.00;98485.13;5253809;28;20105;-77
2023/10/31 03:58:01;;;;;;;7.43;4.20;;;;;;;12.76;100.00;98481.31;5253244;28;20028;-77
2023/10/31 04:00:31;;;;;;;9.07;4.38;;;;;;;12.72;100.00;98479.88;5253965;28;20028;-77
2023/10/31 04:03:02;;;;;;;6.18;3.70;;;;;;;12.77;100.00;98487.41;5248807;28;20028;-76
2023/10/31 04:05:32;;;;;;;5.55;3.58;;;;;;;12.80;100.00;98484.53;5252532;28;20024;-78
2023/10/31 04:08:03;;;;;;;6.72;3.97;;;;;;;12.77;100.00;98480.34;5252683;28;20024;-76
2023/10/31 04:10:33;;;;;;;7.35;4.15;;;;;;;12.78;100.00;98484.66;5250452;28;20023;-76
2023/10/31 04:13:03;;;;;;;7.07;4.00;;;;;;;12.80;100.00;98487.97;5252775;28;20023;-76
2023/10/31 04:15:34;;;;;;;6.43;4.07;;;;;;;12.79;100.00;98488.94;5250275;28;20031;-74
2023/10/31 04:18:05;;;;;;;7.32;4.55;;;;;;;12.78;100.00;98503.00;5251864;28;20028;-77
2023/10/31 04:20:35;;;;;;;7.28;3.88;;;;;;;12.83;100.00;98508.69;5246389;28;20047;-75
2023/10/31 04:23:05;;;;;;;4.30;2.90;;;;;;;12.92;100.00;98508.00;5249459;28;20028;-78
2023/10/31 04:25:36;;;;;;;5.93;3.08;;;;;;;13.05;100.00;98519.25;5248795;28;20584;-77
2023/10/31 04:28:06;;;;;;;4.45;2.60;;;;;;;13.09;100.00;98536.41;5251609;28;20024;-77
2023/10/31 04:30:37;;;;;;;4.40;2.78;;;;;;;13.14;100.00;98534.25;5250748;28;20401;-78
2023/10/31 04:33:07;;;;;;;4.07;1.50;;;;;;;13.11;100.00;98550.22;5248232;28;20066;-76
2023/10/31 04:35:37;;;;;;;1.55;0.90;;;;;;;12.92;100.00;98549.94;5247473;28;20078;-77
2023/10/31 04:38:08;;;;;;;1.45;0.95;;;;;;;12.81;100.00;98556.97;5249545;28;20027;-76
2023/10/31 04:40:38;;;;;;;1.90;1.15;;;;;;;12.78;100.00;98554.59;5243801;28;20112;-76
2023/10/31 04:43:08;;;;;;;1.60;1.00;;;;;;;12.83;100.00;98563.75;5252738;28;20038;-77
2023/10/31 04:45:39;;;;;;;1.48;0.80;;;;;;;12.71;100.00;98561.25;5251543;28;20055;-78
2023/10/31 04:48:09;;;;;;;3.15;1.20;;;;;;;12.68;100.00;98564.94;5254284;28;20024;-77
2023/10/31 04:50:39;;;;;;;1.10;0.90;;;;;;;12.55;100.00;98565.97;5253676;28;20019;-78
2023/10/31 04:53:10;;;;;;;1.98;0.90;;;;;;;12.52;100.00;98567.06;5250586;28;20047;-76
2023/10/31 04:55:40;;;;;;;1.30;0.98;;;;;;;12.51;100.00;98572.41;5250727;28;20047;-76
2023/10/31 04:58:10;;;;;;;1.40;0.98;;;;;;;12.51;100.00;98575.88;5228733;28;20074;-77
2023/10/31 05:00:41;;;;;;;4.05;0.95;;;;;;;12.42;100.00;98581.78;5244900;28;20031;-77
2023/10/31 05:03:11;;;;;;;1.27;0.90;;;;;;;12.42;100.00;98571.31;5247880;28;20035;-77
2023/10/31 05:05:41;;;;;;;1.02;0.85;;;;;;;12.41;100.00;98567.00;5244959;28;20036;-77
2023/10/31 05:08:12;;;;;;;1.38;0.63;;;;;;;12.40;100.00;98578.44;5233540;28;20028;-74
2023/10/31 05:10:42;;;;;;;1.55;0.90;;;;;;;12.33;100.00;98581.63;5234881;28;20024;-76
2023/10/31 05:13:12;;;;;;;1.58;1.00;;;;;;;12.35;100.00;98577.97;5251519;28;20028;-75
2023/10/31 05:15:43;;;;;;;1.00;0.57;;;;;;;12.35;100.00;98585.81;5250085;28;21281;-77
2023/10/31 05:18:13;;;;;;;0.60;0.50;;;;;;;12.36;100.00;98592.72;5235388;28;20081;-76
2023/10/31 05:20:43;;;;;;;2.28;0.52;;;;;;;12.38;100.00;98596.06;5252631;28;20035;-77
2023/10/31 05:23:14;;;;;;;1.02;0.50;;;;;;;12.31;100.00;98594.81;5237967;28;20027;-79
2023/10/31 05:25:44;;;;;;;0.95;0.40;;;;;;;12.25;100.00;98584.81;5235630;28;20477;-76
2023/10/31 05:28:14;;;;;;;0.45;0.40;;;;;;;12.25;100.00;98587.44;5255546;28;20115;-77
2023/10/31 05:30:45;;;;;;;0.47;0.35;;;;;;;12.26;100.00;98591.72;5230052;28;20024;-77
2023/10/31 05:33:16;;;;;;;0.32;0.30;;;;;;;12.31;100.00;98597.44;5246698;28;20028;-77
2023/10/31 05:35:46;;;;;;;0.73;0.40;;;;;;;12.34;100.00;98605.09;5253225;28;20062;-77
2023/10/31 05:38:16;;;;;;;0.75;0.40;;;;;;;12.24;100.00;98601.47;5251745;28;20063;-76
2023/10/31 05:40:46;;;;;;;0.60;0.50;;;;;;;12.21;100.00;98606.09;5233598;28;20040;-74
2023/10/31 05:43:17;;;;;;;0.40;0.40;;;;;;;12.05;100.00;98610.78;5252580;28;20024;-76
2023/10/31 05:45:47;;;;;;;0.73;0.38;;;;;;;12.15;100.00;98604.75;5250594;28;20028;-77
2023/10/31 05:48:17;;;;;;;0.50;0.40;;;;;;;12.18;100.00;98612.41;5252994;28;20020;-77
2023/10/31 05:50:48;;;;;;;2.70;0.60;;;;;;;12.07;100.00;98617.59;5233496;28;20020;-73
2023/10/31 05:53:18;;;;;;;0.73;0.40;;;;;;;12.13;100.00;98622.38;5254211;28;20379;-77
2023/10/31 05:55:49;;;;;;;0.75;0.35;;;;;;;12.05;100.00;98643.06;5255845;28;20028;-77
2023/10/31 05:58:19;;;;;;;1.75;0.30;;;;;;;12.17;100.00;98649.19;5255236;28;20279;-76
2023/10/31 06:00:49;;;;;;;1.45;0.30;;;;;;;12.09;100.00;98647.09;5234866;28;20042;-73
2023/10/31 06:03:19;;;;;;;0.65;0.43;;;;;;;12.15;100.00;98646.66;5245688;28;20043;-76
2023/10/31 06:05:50;;;;;;;0.60;0.40;;;;;;;12.18;100.00;98646.47;5249925;28;20620;-77
2023/10/31 06:08:20;;;;;;;0.93;0.40;;;;;;;12.14;100.00;98660.69;5252291;28;20024;-77
2023/10/31 06:10:50;;;;;;;0.50;0.43;;;;;;;12.17;100.00;98651.78;5241229;28;20032;-74
2023/10/31 06:13:21;;;;;;;4.47;0.40;;;;;;;12.20;100.00;98655.03;5236360;28;20017;-77
2023/10/31 06:15:53;;;;;;;0.52;0.30;;;;;;;12.13;100.00;98647.72;5234323;28;20020;-77
2023/10/31 06:18:23;;;;;;;1.50;0.60;;;;;;;12.10;100.00;98647.97;5257658;28;20469;-76
2023/10/31 06:20:54;;;;;;;0.40;0.30;;;;;;;12.05;100.00;98650.91;5246815;28;20044;-76
2023/10/31 06:23:24;;;;;;;0.70;0.38;;;;;;;12.09;100.00;98652.34;5251013;28;20166;-74
2023/10/31 06:25:54;;;;;;;2.47;0.50;;;;;;;12.04;100.00;98658.84;5251258;28;20287;-76
2023/10/31 06:28:24;;;;;;;1.00;0.50;;;;;;;11.97;100.00;98673.34;5231806;28;20166;-73
2023/10/31 06:30:55;;;;;;;1.40;0.47;;;;;;;11.94;100.00;98679.63;5247835;28;20024;-74
2023/10/31 06:33:25;;;;;;;0.82;0.38;;;;;;;11.95;100.00;98672.63;5249933;28;20032;-77
2023/10/31 06:35:55;;;;;;;0.57;0.28;;;;;;;11.91;100.00;98689.47;5257402;28;20620;-74
2023/10/31 06:38:25;;;;;;;1.17;0.38;;;;;;;11.85;100.00;98674.22;5256300;28;20032;-76
2023/10/31 06:40:57;;;;;;;0.98;0.40;;;;;;;11.74;100.00;98682.81;5258611;28;20106;-73
2023/10/31 06:43:28;;;;;;;1.60;0.35;;;;;;;11.85;100.00;98685.53;5252657;28;20035;-76
2023/10/31 06:46:00;;;;;;;1.83;0.22;;;;;;;11.77;100.00;98697.47;5238434;28;20024;-76
2023/10/31 06:48:30;;;;;;;1.65;0.30;;;;;;;11.76;100.00;98704.47;5254579;28;20093;-73
2023/10/31 06:51:01;;;;;;;1.55;0.25;;;;;;;11.82;100.00;98701.41;5249033;28;20436;-76
2023/10/31 06:53:31;;;;;;;0.47;0.32;;;;;;;11.84;100.00;98704.78;5245909;28;20020;-75
2023/10/31 06:56:01;;;;;;;0.90;0.30;;;;;;;11.85;100.00;98708.22;5252750;28;20107;-77
2023/10/31 06:58:31;;;;;;;0.55;0.30;;;;;;;11.79;100.00;98709.50;5254802;28;20016;-76
2023/10/31 07:01:03;;;;;;;2.42;0.38;;;;;;;11.86;100.00;98705.53;5254387;28;20055;-75
2023/10/31 07:03:33;;;;;;;6.40;0.47;;;;;;;11.87;100.00;98699.34;5255813;28;20042;-77
2023/10/31 07:06:04;;;;;;;1.73;0.50;;;;;;;11.85;100.00;98706.47;5250508;28;20035;-77
2023/10/31 07:08:34;;;;;;;1.58;0.43;;;;;;;11.90;100.00;98699.13;5230247;28;20035;-75
2023/10/31 07:11:04;;;;;;;1.52;0.70;;;;;;;11.88;100.00;98698.38;5248290;28;20024;-77
2023/10/31 07:13:35;;;;;;;2.78;0.50;;;;;;;11.97;100.00;98710.81;5231583;28;20381;-76
2023/10/31 07:16:05;;;;;;;2.17;0.80;;;;;;;11.97;100.00;98704.75;5255204;28;20024;-77
2023/10/31 07:18:36;;;;;;;2.13;0.65;;;;;;;12.09;100.00;98702.09;5236382;28;20060;-77
2023/10/31 07:23:38;;;;;;;2.25;0.73;;;;;;;12.04;100.00;98712.06;5263246;22;20098;-71
2023/10/31 07:26:10;;;;;;;1.45;0.65;;;;;;;11.99;100.00;98706.31;5245983;28;20032;-71
2023/10/31 07:28:41;;;;;;;3.20;0.80;;;;;;;12.00;100.00;98709.78;5244738;28;20543;-71
2023/10/31 07:31:11;;;;;;;2.45;0.68;;;;;;;12.12;100.00;98720.19;5248415;28;20052;-71
2023/10/31 07:33:44;;;;;;;1.65;0.90;;;;;;;12.08;100.00;98731.84;5244657;28;20043;-71
2023/10/31 07:36:14;;;;;;;1.60;0.82;;;;;;;12.19;100.00;98724.06;5245503;28;20024;-71
2023/10/31 07:38:45;;;;;;;1.30;0.80;;;;;;;12.12;100.00;98724.63;5242516;28;20388;-71
2023/10/31 07:41:15;;;;;;;1.67;0.80;;;;;;;12.22;100.00;98736.09;5244756;28;20036;-70
2023/10/31 07:43:46;;;;;;;1.63;0.88;;;;;;;12.20;100.00;98728.38;5240503;28;20505;-71
2023/10/31 07:46:16;;;;;;;1.73;0.80;;;;;;;12.16;100.00;98736.53;5250304;28;20110;-70
2023/10/31 07:48:47;;;;;;;1.50;0.93;;;;;;;12.29;100.00;98719.81;5245625;28;20049;-71
2023/10/31 07:51:17;;;;;;;1.80;0.90;;;;;;;12.36;100.00;98726.31;5233497;28;20066;-71
2023/10/31 07:53:47;;;;;;;1.38;0.90;;;;;;;12.21;100.00;98730.03;5250556;28;20020;-71
2023/10/31 07:56:22;;;;;;;1.20;0.80;;;;;;;12.37;100.00;98720.13;5251967;28;20431;-71
2023/10/31 07:58:54;;;;;;;2.13;1.00;;;;;;;12.38;100.00;98721.81;5253162;28;20040;-72
2023/10/31 08:01:24;;;;;;;2.55;1.10;;;;;;;12.34;100.00;98714.25;5253175;28;20385;-71
2023/10/31 08:03:55;;;;;;;3.03;1.08;;;;;;;12.46;100.00;98724.69;5250736;28;20036;-71
2023/10/31 08:06:25;;;;;;;2.33;1.10;;;;;;;12.40;100.00;98724.28;5248481;28;20473;-70
2023/10/31 08:08:55;;;;;;;1.90;0.90;;;;;;;12.43;100.00;98731.94;5244208;28;20448;-71
2023/10/31 08:11:26;;;;;;;3.95;1.25;;;;;;;12.43;100.00;98734.56;5242267;28;20104;-71
2023/10/31 08:13:56;;;;;;;6.47;1.90;;;;;;;12.46;100.00;98735.16;5244183;28;20100;-71
2023/10/31 08:16:27;;;;;;;3.63;1.10;;;;;;;12.41;100.00;98742.53;5243339;28;20432;-71
2023/10/31 08:18:58;;;;;;;3.42;1.33;;;;;;;12.41;100.00;98742.53;5239701;28;20548;-71
2023/10/31 08:21:33;;;;;;;3.53;1.40;;;;;;;12.46;100.00;98752.69;5244701;28;20428;-70
2023/10/31 08:24:04;;;;;;;3.65;1.65;;;;;;;12.45;100.00;98748.41;5250067;28;20527;-71
2023/10/31 08:26:34;;;;;;;4.30;1.50;;;;;;;12.40;100.00;98768.81;5245130;28;20047;-71
2023/10/31 08:29:04;;;;;;;3.60;1.58;;;;;;;12.43;100.00;98756.34;5248966;28;20050;-71
2023/10/31 08:31:35;;;;;;;2.72;1.80;;;;;;;12.47;100.00;98767.44;5245320;28;20032;-71
2023/10/31 08:34:05;;;;;;;2.90;1.65;;;;;;;12.51;100.00;98769.75;5245286;28;20066;-71
2023/10/31 08:36:35;;;;;;;3.08;1.95;;;;;;;12.48;100.00;98769.94;5243323;28;20440;-71
2023/10/31 08:39:06;;;;;;;3.50;1.70;;;;;;;12.37;100.00;98777.75;5246447;28;20683;-71
2023/10/31 08:41:38;;;;;;;3.35;1.60;;;;;;;12.40;100.00;98777.53;5246969;28;20046;-70
2023/10/31 08:44:09;;;;;;;3.65;1.98;;;;;;;12.55;100.00;98778.22;5244860;28;20025;-71
2023/10/31 08:46:39;;;;;;;4.03;1.65;;;;;;;12.53;100.00;98775.72;5243916;28;20042;-71
2023/10/31 08:49:09;;;;;;;2.97;1.88;;;;;;;12.44;100.00;98786.84;5244488;28;20028;-71
2023/10/31 08:51:40;;;;;;;3.50;2.20;;;;;;;12.37;100.00;98792.63;5240507;28;20646;-71
2023/10/31 08:54:11;;;;;;;4.70;2.45;;;;;;;12.46;100.00;98798.03;5223238;28;20027;-71
2023/10/31 08:56:41;;;;;;;5.18;2.22;;;;;;;12.46;100.00;98798.03;5240764;28;20572;-69
2023/10/31 08:59:11;;;;;;;4.07;1.70;;;;;;;12.50;100.00;98804.72;5241648;28;20111;-71
2023/10/31 09:01:42;;;;;;;6.15;1.85;;;;;;;12.51;100.00;98805.59;5244738;28;20452;-69
2023/10/31 09:04:12;;;;;;;2.85;1.58;;;;;;;12.49;100.00;98813.53;5243714;28;20027;-71
2023/10/31 09:06:42;;;;;;;3.15;1.75;;;;;;;12.51;100.00;98822.16;5243236;28;20032;-70
2023/10/31 09:09:13;;;;;;;4.20;2.25;;;;;;;12.36;100.00;98849.44;5243937;28;20085;-71
2023/10/31 09:11:43;;;;;;;3.42;1.63;;;;;;;12.19;100.00;98847.16;5243636;28;21148;-71
2023/10/31 09:14:14;;;;;;;4.20;2.05;;;;;;;12.09;100.00;98859.19;5242028;28;20065;-71
2023/10/31 09:16:44;;;;;;;3.72;1.80;;;;;;;12.04;100.00;98858.69;5242724;28;20035;-70
2023/10/31 09:19:14;;;;;;;2.53;1.55;;;;;;;12.07;100.00;98855.84;5249428;28;20673;-71
2023/10/31 09:21:45;;;;;;;6.03;1.60;;;;;;;12.11;100.00;98859.94;5246784;28;20370;-70
2023/10/31 09:24:15;;;;;;;2.05;1.35;;;;;;;12.31;100.00;98859.38;5247754;28;20036;-71
2023/10/31 09:26:45;;;;;;;4.05;1.70;;;;;;;12.49;100.00;98868.56;5245114;28;20056;-71
2023/10/31 09:29:16;;;;;;;2.63;1.40;;;;;;;12.52;100.00;98864.91;5247692;28;20043;-71
2023/10/31 09:31:47;;;;;;;1.75;1.13;;;;;;;12.60;100.00;98873.06;5246581;28;20025;-71
2023/10/31 09:34:18;;;;;;;2.60;1.02;;;;;;;12.81;100.00;98872.34;5245008;28;20689;-71
2023/10/31 09:36:48;;;;;;;1.65;0.90;;;;;;;12.88;100.00;98872.75;5239852;28;20740;-71
2023/10/31 09:39:18;;;;;;;1.23;0.60;;;;;;;12.93;100.00;98881.16;5243023;28;20024;-70
2023/10/31 09:41:48;;;;;;;1.50;0.60;;;;;;;12.97;100.00;98888.69;5242484;28;20028;-71
2023/10/31 09:44:19;;;;;;;3.35;0.98;;;;;;;12.85;100.00;98889.53;5249221;28;20554;-71
2023/10/31 09:46:52;;;;;;;1.23;0.70;;;;;;;12.93;100.00;98902.13;5246252;28;20500;-71
2023/10/31 09:49:23;;;;;;;1.20;0.55;;;;;;;12.94;100.00;98907.28;5249353;28;20060;-71
2023/10/31 09:51:53;;;;;;;1.42;0.60;;;;;;;13.35;100.00;98907.72;5247881;28;20111;-71
2023/10/31 09:54:25;;;;;;;1.25;0.40;;;;;;;13.50;100.00;98914.47;5251137;28;20578;-71
2023/10/31 09:56:56;;;;;;;2.55;0.50;;;;;;;13.48;100.00;98905.88;5248223;28;20039;-71
2023/10/31 09:59:26;;;;;;;0.98;0.40;;;;;;;13.57;99.92;98916.53;5230986;28;20031;-70
2023/10/31 10:01:56;;;;;;;0.82;0.40;;;;;;;13.34;99.66;98913.94;5247977;28;20029;-71
2023/10/31 10:04:28;;;;;;;0.50;0.40;;;;;;;13.26;98.51;98921.53;5248782;28;20131;-71
2023/10/31 10:07:03;;;;;;;1.15;0.40;;;;;;;13.22;98.80;98933.22;5247376;28;20428;-70
2023/10/31 10:09:33;;;;;;;0.30;0.23;;;;;;;13.39;99.28;98938.06;5248511;28;20052;-71
2023/10/31 10:12:05;;;;;;;0.52;0.30;;;;;;;13.34;97.38;98940.16;5252210;28;20106;-70
2023/10/31 10:14:35;;;;;;;2.78;0.30;;;;;;;13.37;95.89;98934.72;5245501;28;20051;-71
2023/10/31 10:17:16;;;;;;;0.40;0.28;;;;;;;13.48;95.75;98925.09;5250694;28;20109;-71
2023/10/31 10:19:47;;;;;;;2.17;0.30;;;;;;;13.64;94.00;98930.06;5245623;28;20142;-71
2023/10/31 10:22:20;;;;;;;0.80;0.28;;;;;;;13.41;94.51;98936.16;5247098;28;20165;-70
2023/10/31 10:24:50;;;;;;;1.27;0.70;;;;;;;13.34;95.09;98932.28;5244704;28;20123;-69
2023/10/31 10:27:20;;;;;;;0.43;0.20;;;;;;;13.15;95.52;98942.44;5251579;28;20107;-71
2023/10/31 10:29:53;;;;;;;0.93;0.30;;;;;;;13.04;96.42;98945.03;5226896;28;20028;-70
2023/10/31 10:32:24;;;;;;;1.67;0.32;;;;;;;13.09;96.86;98951.59;5245742;28;20021;-70
2023/10/31 10:34:54;;;;;;;0.73;0.20;;;;;;;12.98;96.04;98955.94;5226743;28;20054;-71
2023/10/31 10:37:27;;;;;;;1.92;0.43;;;;;;;13.05;96.98;98960.63;5243033;28;20037;-70
2023/10/31 10:39:59;;;;;;;0.93;0.22;;;;;;;13.12;97.05;98961.03;5247251;28;20587;-71
2023/10/31 10:42:44;;;;;;;0.43;0.20;;;;;;;13.16;97.79;98958.09;5243466;28;20408;-71
2023/10/31 10:45:19;;;;;;;1.90;0.70;;;;;;;13.13;97.97;98970.56;5250977;28;20028;-71
2023/10/31 10:47:50;;;;;;;2.72;0.93;;;;;;;12.96;98.21;98976.19;5248774;28;20131;-71
2023/10/31 10:50:28;;;;;;;1.15;0.50;;;;;;;13.06;97.19;98975.41;5247315;28;20036;-71
2023/10/31 10:53:18;;;;;;;0.38;0.30;;;;;;;12.99;96.64;98982.06;5245354;28;20024;-70
2023/10/31 10:55:52;;;;;;;1.25;0.63;;;;;;;12.97;96.41;98982.28;5240000;28;20040;-71
2023/10/31 10:58:27;;;;;;;0.90;0.32;;;;;;;12.95;95.38;98992.84;5248232;28;20023;-71
2023/10/31 11:00:58;;;;;;;0.60;0.32;;;;;;;12.94;94.59;99001.69;5246396;28;20032;-70
2023/10/31 11:03:29;;;;;;;4.80;0.70;;;;;;;13.03;95.41;98983.50;5244414;28;20061;-71
2023/10/31 11:06:00;;;;;;;1.65;0.22;;;;;;;13.01;94.07;98987.19;5249128;28;20028;-71
2023/10/31 11:08:32;;;;;;;0.80;0.50;;;;;;;13.05;94.48;98991.28;5248720;28;20397;-71
2023/10/31 11:11:04;;;;;;;0.20;0.20;;;;;;;13.07;95.17;98989.38;5248414;28;20031;-71
2023/10/31 11:13:34;;;;;;;0.80;0.30;;;;;;;13.14;95.26;98985.38;5245409;28;20028;-71
2023/10/31 11:16:16;;;;;;;1.05;0.43;;;;;;;13.26;94.35;98992.38;5245936;28;20389;-71
2023/10/31 11:18:46;;;;;;;1.58;0.20;;;;;;;13.56;93.19;98979.66;5242244;28;20023;-71
2023/10/31 11:21:17;;;;;;;0.38;0.20;;;;;;;13.66;93.30;98972.78;5245256;28;20066;-71
2023/10/31 11:23:57;;;;;;;0.80;0.30;;;;;;;13.66;92.75;98983.28;5246488;28;20946;-71
2023/10/31 11:26:30;;;;;;;0.65;0.40;;;;;;;13.51;92.42;98969.50;5247756;28;20832;-71
2023/10/31 11:29:05;;;;;;;0.63;0.20;;;;;;;13.59;92.83;98976.81;5244722;28;20656;-71
2023/10/31 11:31:37;;;;;;;1.07;0.50;;;;;;;13.77;92.91;98964.97;5242181;28;20796;-71
2023/10/31 11:34:07;;;;;;;1.88;0.70;;;;;;;13.66;92.57;98957.88;5245675;28;20032;-71
2023/10/31 11:36:38;;;;;;;1.40;0.35;;;;;;;13.70;92.84;98971.59;5252980;28;20027;-71
2023/10/31 11:39:13;;;;;;;0.63;0.40;;;;;;;13.67;92.74;98984.94;5246850;28;20526;-71
2023/10/31 11:41:50;;;;;;;1.37;0.50;;;;;;;13.76;92.99;98984.28;5248816;28;20055;-70
2023/10/31 11:44:26;;;;;;;1.83;0.70;;;;;;;13.77;93.93;98975.47;5241384;28;20036;-71